Time;durP1;ratioP1;P1;durP2;ratioP2;P2;SDS_P1;SDS_P2;PMS_P1;PMS_P2;Temp;Humidity;BMP_temperature;BMP_pressure;BME280_temperature;BME280_humidity;BME280_pressure;Samples;Min_cycle;Max_cycle;Signal;HPM_P1;HPM_P2
2021/09/08 00:01:53;;;;;;;;;;;;;;;14.58;72.32;98962.86;1566783;90;20248;-87
2021/09/08 00:04:21;;;;;;;;;;;;;;;14.58;72.40;98967.28;1592809;88;25290;-86
2021/09/08 00:06:50;;;;;;;;;;;;;;;14.57;72.49;98965.13;1580852;89;22176;-87
2021/09/08 00:09:19;;;;;;;;;;;;;;;14.54;72.55;98968.02;1586941;89;26069;-86
2021/09/08 00:11:45;;;;;;;;;;;;;;;14.58;72.64;98972.08;1590860;89;24439;-87
2021/09/08 00:14:11;;;;;;;;;;;;;;;14.57;72.72;98969.08;1585242;89;20399;-87
2021/09/08 00:16:37;;;;;;;;;;;;;;;14.57;72.78;98966.92;1578387;89;24901;-87
2021/09/08 00:19:03;;;;;;;;;;;;;;;14.61;72.83;98974.97;1589788;89;22075;-87
2021/09/08 00:21:29;;;;;;;;;;;;;;;14.62;72.90;98970.88;1578907;89;20846;-87
2021/09/08 00:23:57;;;;;;;;;;;;;;;14.64;72.95;98970.76;1588509;89;24539;-87
2021/09/08 00:26:24;;;;;;;;;;;;;;;14.65;73.02;98973.76;1590052;89;20438;-87
2021/09/08 00:28:51;;;;;;;;;;;;;;;14.68;73.05;98977.94;1586867;89;25568;-87
2021/09/08 00:31:18;;;;;;;;;;;;;;;14.68;73.10;98975.30;1588947;89;22061;-86
2021/09/08 00:33:44;;;;;;;;;;;;;;;14.68;73.13;98976.62;1592006;89;26881;-86
2021/09/08 00:36:16;;;;;;;;;;;;;;;14.64;73.17;98978.19;1584347;89;20257;-87
2021/09/08 00:38:49;;;;;;;;;;;;;;;14.61;73.19;98974.97;1590600;88;20196;-87
2021/09/08 00:41:15;;;;;;;;;;;;;;;14.56;73.18;98977.93;1592328;89;24871;-87
2021/09/08 00:43:41;;;;;;;;;;;;;;;14.52;73.21;98979.13;1554667;91;21941;-87
2021/09/08 00:46:11;;;;;;;;;;;;;;;14.50;73.21;98971.00;1591991;88;27200;-87
2021/09/08 00:48:35;;;;;;;;;;;;;;;14.46;73.25;98970.86;1572002;91;24560;-87
2021/09/08 00:51:07;;;;;;;;;;;;;;;14.40;73.29;98973.99;1592909;88;20333;-87
2021/09/08 00:53:34;;;;;;;;;;;;;;;14.37;73.31;98973.73;1563337;91;24946;-86
2021/09/08 00:56:09;;;;;;;;;;;;;;;14.34;73.36;98969.16;1594273;88;22080;-86
2021/09/08 00:58:35;;;;;;;;;;;;;;;14.33;73.41;98967.00;1566370;89;25653;-86
2021/09/08 01:01:01;;;;;;;;;;;;;;;14.34;73.44;98973.95;1594967;89;20245;-87
2021/09/08 01:03:27;;;;;;;;;;;;;;;14.32;73.49;98974.53;1566930;89;20292;-86
2021/09/08 01:05:53;;;;;;;;;;;;;;;14.31;73.53;98975.48;1597616;89;24647;-87
2021/09/08 01:08:19;;;;;;;;;;;;;;;14.32;73.58;98981.12;1569236;89;21956;-87
2021/09/08 01:10:45;;;;;;;;;;;;;;;14.33;73.64;98982.80;1592976;88;20856;-87
2021/09/08 01:13:12;;;;;;;;;;;;;;;14.32;73.68;98982.43;1567645;90;24435;-87
2021/09/08 01:15:38;;;;;;;;;;;;;;;14.29;73.73;98976.09;1568248;90;20260;-87
2021/09/08 01:18:04;;;;;;;;;;;;;;;14.26;73.75;98977.63;1592634;89;24995;-87
2021/09/08 01:20:36;;;;;;;;;;;;;;;14.25;73.80;98974.63;1592742;88;21981;-87
2021/09/08 01:23:08;;;;;;;;;;;;;;;14.24;73.85;98973.79;1575208;90;26121;-87
2021/09/08 01:25:41;;;;;;;;;;;;;;;14.22;73.87;98974.41;1593384;88;24679;-87
2021/09/08 01:28:05;;;;;;;;;;;;;;;14.22;73.88;98969.61;1569953;89;20543;-87
2021/09/08 01:30:40;;;;;;;;;;;;;;;14.22;73.92;98969.14;1595193;88;24873;-88
2021/09/08 01:33:06;;;;;;;;;;;;;;;14.25;73.94;98970.69;1589188;88;21990;-87
2021/09/08 01:35:32;;;;;;;;;;;;;;;14.22;73.97;98968.30;1593448;88;26163;-87
2021/09/08 01:37:58;;;;;;;;;;;;;;;14.21;74.03;98964.83;1568919;90;24464;-87
2021/09/08 01:40:30;;;;;;;;;;;;;;;14.21;74.06;98966.14;1604075;88;20905;-87
2021/09/08 01:43:02;;;;;;;;;;;;;;;14.19;74.10;98966.72;1576723;90;25588;-87
2021/09/08 01:45:36;;;;;;;;;;;;;;;14.22;74.14;98963.87;1606132;89;21479;-87
2021/09/08 01:48:02;;;;;;;;;;;;;;;14.23;74.17;98965.56;1578269;90;26092;-87
2021/09/08 01:50:30;;;;;;;;;;;;;;;14.23;74.20;98963.40;1605806;88;24498;-87
2021/09/08 01:52:58;;;;;;;;;;;;;;;14.23;74.21;98971.30;1577415;90;20325;-87
2021/09/08 01:55:24;;;;;;;;;;;;;;;14.23;74.23;98964.72;1605742;88;24811;-87
2021/09/08 01:57:50;;;;;;;;;;;;;;;14.24;74.28;98965.89;1580060;89;21964;-87
2021/09/08 02:00:16;;;;;;;;;;;;;;;14.24;74.31;98965.05;1605686;89;21073;-87
2021/09/08 02:02:42;;;;;;;;;;;;;;;14.24;74.32;98971.16;1579441;90;24514;-87
2021/09/08 02:05:09;;;;;;;;;;;;;;;14.22;74.33;98969.61;1605641;88;20880;-87
2021/09/08 02:07:35;;;;;;;;;;;;;;;14.21;74.36;98958.72;1560880;91;25901;-87
2021/09/08 02:10:01;;;;;;;;;;;;;;;14.20;74.39;98960.98;1605920;89;22022;-87
2021/09/08 02:12:27;;;;;;;;;;;;;;;14.24;74.41;98957.16;1579449;91;26009;-87
2021/09/08 02:14:59;;;;;;;;;;;;;;;14.22;74.43;98957.30;1605839;89;24438;-87
2021/09/08 02:17:25;;;;;;;;;;;;;;;14.22;74.46;98955.98;1577377;91;20288;-87
2021/09/08 02:19:54;;;;;;;;;;;;;;;14.21;74.51;98952.98;1605875;88;25421;-86
2021/09/08 02:22:20;;;;;;;;;;;;;;;14.18;74.53;98953.70;1579342;91;22084;-87
2021/09/08 02:24:46;;;;;;;;;;;;;;;14.18;74.57;98949.75;1605753;89;26225;-87
2021/09/08 02:27:18;;;;;;;;;;;;;;;14.25;74.63;98950.94;1579169;91;24637;-87
2021/09/08 02:29:44;;;;;;;;;;;;;;;14.30;74.68;98953.21;1604294;89;20250;-87
2021/09/08 02:32:10;;;;;;;;;;;;;;;14.34;74.72;98957.31;1559575;91;24680;-87
2021/09/08 02:34:36;;;;;;;;;;;;;;;14.34;74.78;98948.94;1605820;88;22032;-87
2021/09/08 02:37:02;;;;;;;;;;;;;;;14.34;74.79;98950.25;1579546;90;21056;-87
2021/09/08 02:39:30;;;;;;;;;;;;;;;14.33;74.82;98950.36;1595833;89;24483;-86
2021/09/08 02:41:57;;;;;;;;;;;;;;;14.31;74.82;98949.16;1562827;91;20314;-86
2021/09/08 02:44:23;;;;;;;;;;;;;;;14.30;74.81;98946.16;1591189;89;24738;-86
2021/09/08 02:46:49;;;;;;;;;;;;;;;14.31;74.84;98947.00;1594564;88;22039;-87
2021/09/08 02:49:15;;;;;;;;;;;;;;;14.31;74.84;98947.84;1566900;91;26020;-87
2021/09/08 02:51:41;;;;;;;;;;;;;;;14.29;74.83;98948.45;1590320;89;24507;-87
2021/09/08 02:54:09;;;;;;;;;;;;;;;14.27;74.84;98949.04;1567450;90;20301;-87
2021/09/08 02:56:35;;;;;;;;;;;;;;;14.22;74.84;98945.92;1596762;89;24764;-87
2021/09/08 02:59:01;;;;;;;;;;;;;;;14.17;74.81;98949.38;1567880;90;20209;-86
2021/09/08 03:01:28;;;;;;;;;;;;;;;14.08;74.80;98939.06;1590177;89;26000;-87
2021/09/08 03:03:54;;;;;;;;;;;;;;;14.01;74.83;98949.72;1557197;90;24561;-88
2021/09/08 03:06:20;;;;;;;;;;;;;;;13.96;74.81;98947.91;1594736;88;20320;-88
2021/09/08 03:08:48;;;;;;;;;;;;;;;13.92;74.85;98942.48;1560155;90;20241;-87
2021/09/08 03:11:14;;;;;;;;;;;;;;;13.79;74.83;98947.02;1593684;89;20311;-88
2021/09/08 03:13:49;;;;;;;;;;;;;;;13.73;74.84;98950.09;1567983;90;26086;-88
2021/09/08 03:16:18;;;;;;;;;;;;;;;13.63;74.85;98946.00;1591039;88;24438;-88
2021/09/08 03:18:44;;;;;;;;;;;;;;;13.52;74.86;98947.27;1565312;90;21086;-88
2021/09/08 03:21:11;;;;;;;;;;;;;;;13.43;74.91;98947.92;1593897;88;38102;-88
2021/09/08 03:23:52;;;;;;;;;;;;;;;13.33;74.97;98949.08;1567088;90;22063;-88
2021/09/08 03:26:18;;;;;;;;;;;;;;;13.28;75.05;98949.89;1592852;88;26658;-88
2021/09/08 03:28:45;;;;;;;;;;;;;;;13.24;75.11;98953.70;1570159;91;25076;-87
2021/09/08 03:31:11;;;;;;;;;;;;;;;13.26;75.19;98955.73;1593436;89;20244;-87
2021/09/08 03:33:38;;;;;;;;;;;;;;;13.35;75.28;98954.23;1564931;91;25031;-87
2021/09/08 03:36:04;;;;;;;;;;;;;;;13.44;75.39;98951.40;1592369;89;22035;-87
2021/09/08 03:38:30;;;;;;;;;;;;;;;13.44;75.46;98950.92;1565023;90;26184;-88
2021/09/08 03:40:56;;;;;;;;;;;;;;;13.38;75.49;98952.21;1582235;89;24473;-88
2021/09/08 03:43:22;;;;;;;;;;;;;;;13.36;75.51;98951.98;1585256;89;20293;-88
2021/09/08 03:45:48;;;;;;;;;;;;;;;13.31;75.57;98952.79;1585780;89;20868;-88
2021/09/08 03:48:17;;;;;;;;;;;;;;;13.28;75.61;98949.89;1582681;89;22691;-87
2021/09/08 03:50:43;;;;;;;;;;;;;;;13.24;75.65;98953.70;1584264;89;25995;-87
2021/09/08 03:53:10;;;;;;;;;;;;;;;13.16;75.70;98946.83;1583057;89;24508;-87
2021/09/08 03:55:36;;;;;;;;;;;;;;;13.11;75.75;98952.02;1581097;89;20379;-87
2021/09/08 03:58:02;;;;;;;;;;;;;;;13.12;75.81;98953.73;1585918;89;24851;-87
2021/09/08 04:00:28;;;;;;;;;;;;;;;13.13;75.88;98955.42;1585202;89;22024;-87
2021/09/08 04:02:55;;;;;;;;;;;;;;;;;;1586129;89;25946;-87
2021/09/08 04:05:21;;;;;;;;;;;;;;;13.05;75.99;98962.97;1585873;89;24438;-87
2021/09/08 04:07:47;;;;;;;;;;;;;;;13.02;76.04;98960.57;1581731;89;20295;-87
2021/09/08 04:10:13;;;;;;;;;;;;;;;13.01;76.10;98959.73;1585598;89;24838;-88
2021/09/08 04:12:39;;;;;;;;;;;;;;;12.97;76.13;98958.28;1584734;89;21529;-86
2021/09/08 04:15:05;;;;;;;;;;;;;;;12.97;76.18;98956.97;1588554;90;22567;-86
2021/09/08 04:17:32;;;;;;;;;;;;;;;13.02;76.26;98961.89;1578674;89;24535;-86
2021/09/08 04:19:58;;;;;;;;;;;;;;;13.05;76.33;98966.91;1589867;89;20253;-86
2021/09/08 04:22:24;;;;;;;;;;;;;;;13.08;76.37;98968.86;1584949;89;24715;-86
2021/09/08 04:24:50;;;;;;;;;;;;;;;13.10;76.44;98968.27;1585641;89;20490;-86
2021/09/08 04:27:16;;;;;;;;;;;;;;;13.02;76.47;98965.36;1586944;89;25952;-86
2021/09/08 04:29:49;;;;;;;;;;;;;;;12.95;76.47;98970.20;1582565;89;25314;-87
2021/09/08 04:32:16;;;;;;;;;;;;;;;12.93;76.47;98969.45;1588383;89;21201;-87
2021/09/08 04:34:42;;;;;;;;;;;;;;;12.91;76.51;98973.16;1582668;90;24775;-87
2021/09/08 04:37:09;;;;;;;;;;;;;;;12.86;76.55;98971.33;1584162;89;22154;-87
2021/09/08 04:39:35;;;;;;;;;;;;;;;12.82;76.59;98974.63;1579021;90;26022;-87
2021/09/08 04:42:07;;;;;;;;;;;;;;;12.79;76.60;98968.77;1569966;91;24258;-87
2021/09/08 04:44:33;;;;;;;;;;;;;;;12.77;76.66;98970.64;1570260;91;20255;-87
2021/09/08 04:46:59;;;;;;;;;;;;;;;12.76;76.72;98976.88;1568070;91;24884;-87
2021/09/08 04:49:25;;;;;;;;;;;;;;;12.78;76.80;98978.42;1566213;91;21981;-86
2021/09/08 04:51:53;;;;;;;;;;;;;;;12.91;76.91;98970.06;1563665;90;26708;-86
2021/09/08 04:54:19;;;;;;;;;;;;;;;13.02;77.00;98973.71;1567346;91;24568;-86
2021/09/08 04:56:45;;;;;;;;;;;;;;;13.03;77.09;98972.30;1565534;91;20729;-87
2021/09/08 04:59:11;;;;;;;;;;;;;;;13.07;77.16;98971.13;1565526;90;20241;-87
2021/09/08 05:01:37;;;;;;;;;;;;;;;13.07;77.23;98967.66;1569691;91;20341;-87
2021/09/08 05:04:03;;;;;;;;;;;;;;;13.11;77.26;98965.16;1566797;91;26267;-87
2021/09/08 05:06:29;;;;;;;;;;;;;;;13.17;77.34;98964.28;1569250;91;24458;-87
2021/09/08 05:08:57;;;;;;;;;;;;;;;13.22;77.40;98966.58;1569083;91;20437;-87
2021/09/08 05:11:23;;;;;;;;;;;;;;;13.27;77.48;98960.52;1568592;91;25031;-87
2021/09/08 05:13:49;;;;;;;;;;;;;;;13.30;77.54;98965.56;1565988;91;22056;-87
2021/09/08 05:16:16;;;;;;;;;;;;;;;13.30;77.55;98971.66;1562791;91;26216;-87
2021/09/08 05:18:43;;;;;;;;;;;;;;;13.43;77.64;98970.28;1559912;91;24526;-88
2021/09/08 05:21:10;;;;;;;;;;;;;;;13.52;77.70;98977.52;1566671;91;20269;-87
2021/09/08 05:23:36;;;;;;;;;;;;;;;13.59;77.75;98970.83;1564503;91;24744;-87
2021/09/08 05:26:02;;;;;;;;;;;;;;;13.59;77.81;98973.94;1562996;91;20855;-87
2021/09/08 05:28:31;;;;;;;;;;;;;;;13.65;77.86;98975.64;1562371;91;26110;-87
2021/09/08 05:30:57;;;;;;;;;;;;;;;13.81;77.94;98976.19;1563670;91;24676;-89
2021/09/08 05:33:23;;;;;;;;;;;;;;;13.91;78.02;98972.38;1567968;91;20331;-87
2021/09/08 05:35:49;;;;;;;;;;;;;;;13.89;78.04;98978.73;1563556;90;25335;-87
2021/09/08 05:38:15;;;;;;;;;;;;;;;13.95;78.08;98979.12;1568244;91;20677;-88
2021/09/08 05:40:41;;;;;;;;;;;;;;;14.01;78.14;98976.03;1569684;89;26064;-86
2021/09/08 05:43:07;;;;;;;;;;;;;;;14.02;78.17;98982.14;1595088;89;20308;-86
2021/09/08 05:45:33;;;;;;;;;;;;;;;14.00;78.19;98981.40;1588221;89;20461;-87
2021/09/08 05:48:01;;;;;;;;;;;;;;;14.00;78.20;98980.09;1586419;89;20354;-87
2021/09/08 05:50:28;;;;;;;;;;;;;;;14.09;78.28;98985.48;1586116;89;22105;-86
2021/09/08 05:52:55;;;;;;;;;;;;;;;14.13;78.31;98984.77;1592981;89;25983;-87
2021/09/08 05:55:22;;;;;;;;;;;;;;;14.23;78.40;98984.45;1597186;89;24631;-85
2021/09/08 05:57:47;;;;;;;;;;;;;;;14.34;78.44;98980.53;1591738;89;20258;-85
2021/09/08 06:00:14;;;;;;;;;;;;;;;14.36;78.46;98981.23;1594310;89;25959;-85
2021/09/08 06:02:40;;;;;;;;;;;;;;;14.41;78.49;98986.17;1583542;89;21928;-87
2021/09/08 06:05:12;;;;;;;;;;;;;;;14.46;78.55;98983.55;1588830;89;26953;-86
2021/09/08 06:07:38;;;;;;;;;;;;;;;14.48;78.59;98987.39;1592715;89;24630;-87
2021/09/08 06:10:06;;;;;;;;;;;;;;;14.57;78.67;98983.56;1592398;89;20199;-87
2021/09/08 06:12:36;;;;;;;;;;;;;;;14.60;78.71;98985.14;1593497;89;25030;-87
2021/09/08 06:15:01;;;;;;;;;;;;;;;14.62;78.77;98985.83;1596284;87;22025;-87
2021/09/08 06:17:28;;;;;;;;;;;;;;;14.72;78.86;98982.03;1595021;89;25528;-87
2021/09/08 06:19:55;;;;;;;;;;;;;;;14.82;78.94;98981.66;1591855;89;24403;-88
2021/09/08 06:22:21;;;;;;;;;;;;;;;14.85;79.01;98984.89;1583632;89;20300;-87
2021/09/08 06:24:47;;;;;;;;;;;;;;;14.93;79.09;98982.50;1588392;89;24821;-88
2021/09/08 06:27:13;;;;;;;;;;;;;;;14.99;79.16;98978.55;1588211;89;21981;-87
2021/09/08 06:29:39;;;;;;;;;;;;;;;15.08;79.22;98981.28;1594545;89;25997;-87
2021/09/08 06:32:06;;;;;;;;;;;;;;;15.15;79.30;98973.73;1591149;89;24485;-87
2021/09/08 06:34:33;;;;;;;;;;;;;;;15.21;79.40;98982.47;1583454;89;20227;-87
2021/09/08 06:37:00;;;;;;;;;;;;;;;15.28;79.44;98981.48;1591247;89;24832;-87
2021/09/08 06:39:26;;;;;;;;;;;;;;;15.38;79.51;98979.80;1589039;89;21984;-87
2021/09/08 06:41:52;;;;;;;;;;;;;;;15.46;79.62;98979.52;1584482;89;26012;-87
2021/09/08 06:44:22;;;;;;;;;;;;;;;15.56;79.68;98979.64;1583454;89;24579;-88
2021/09/08 06:46:52;;;;;;;;;;;;;;;15.67;79.79;98978.28;1585221;89;20309;-88
2021/09/08 06:49:19;;;;;;;;;;;;;;;15.77;79.86;98975.72;1588319;89;25577;-88
2021/09/08 06:51:51;;;;;;;;;;;;;;;15.86;79.96;98977.62;1581150;89;22048;-87
2021/09/08 06:54:19;;;;;;;;;;;;;;;15.93;80.02;98976.63;1591336;89;26813;-88
2021/09/08 06:56:51;;;;;;;;;;;;;;;16.02;80.05;98977.18;1585435;89;24463;-88
2021/09/08 06:59:17;;;;;;;;;;;;;;;16.11;80.07;98970.64;1580791;89;20307;-87
2021/09/08 07:01:43;;;;;;;;;;;;;;;16.19;80.02;98964.72;1583862;89;24746;-88
2021/09/08 07:04:09;;;;;;;;;;;;;;;16.37;79.93;98973.71;1590081;89;20251;-88
2021/09/08 07:06:35;;;;;;;;;;;;;;;16.45;79.84;98973.07;1583304;89;26199;-88
2021/09/08 07:09:01;;;;;;;;;;;;;;;16.53;79.78;98974.59;1589111;89;20250;-88
2021/09/08 07:11:27;;;;;;;;;;;;;;;16.62;79.68;98975.98;1572262;89;20283;-88
2021/09/08 07:13:53;;;;;;;;;;;;;;;16.73;79.58;98975.90;1586283;89;24759;-88
2021/09/08 07:16:19;;;;;;;;;;;;;;;16.85;79.55;98977.97;1586541;89;22057;-88
2021/09/08 07:18:45;;;;;;;;;;;;;;;16.88;79.45;98964.47;1585620;89;26044;-88
2021/09/08 07:21:11;;;;;;;;;;;;;;;17.03;79.38;98980.31;1588762;89;24415;-88
2021/09/08 07:23:45;;;;;;;;;;;;;;;17.07;79.30;98979.06;1581105;89;20277;-87
2021/09/08 07:26:11;;;;;;;;;;;;;;;17.19;79.25;98979.80;1587216;89;24845;-88
2021/09/08 07:28:37;;;;;;;;;;;;;;;17.31;79.20;98980.04;1589335;89;20310;-86
2021/09/08 07:31:03;;;;;;;;;;;;;;;17.44;79.12;98982.44;1583033;89;25989;-86
2021/09/08 07:33:29;;;;;;;;;;;;;;;17.52;79.00;98982.58;1587965;89;20256;-88
2021/09/08 07:35:55;;;;;;;;;;;;;;;17.63;78.84;98986.45;1591051;89;20872;-88
2021/09/08 07:38:22;;;;;;;;;;;;;;;17.73;78.63;98982.52;1588914;89;24859;-88
2021/09/08 07:40:48;;;;;;;;;;;;;;;17.80;78.43;98979.64;1592585;88;22077;-87
2021/09/08 07:43:14;;;;;;;;;;;;;;;17.91;78.21;98981.66;1589343;89;26143;-87
2021/09/08 07:45:40;;;;;;;;;;;;;;;18.03;77.95;98976.22;1596305;89;24543;-87
2021/09/08 07:48:07;;;;;;;;;;;;;;;18.14;77.65;98983.53;1596042;89;20262;-88
2021/09/08 07:50:34;;;;;;;;;;;;;;;18.22;77.40;98985.48;1580083;89;25044;-88
2021/09/08 07:53:03;;;;;;;;;;;;;;;18.33;77.20;98978.19;1585086;89;22088;-88
2021/09/08 07:55:28;;;;;;;;;;;;;;;18.43;76.91;98983.49;1588086;89;28105;-88
2021/09/08 07:57:54;;;;;;;;;;;;;;;18.52;76.69;98986.59;1590308;89;24438;-88
2021/09/08 08:00:20;;;;;;;;;;;;;;;18.60;76.45;98981.42;1591932;89;20842;-88
2021/09/08 08:02:50;;;;;;;;;;;;;;;18.65;76.23;98985.00;1586884;89;20569;-88
2021/09/08 08:05:24;;;;;;;;;;;;;;;18.72;76.03;98984.74;1597735;88;21997;-87
2021/09/08 08:07:50;;;;;;;;;;;;;;;18.79;75.70;98978.72;1578963;90;26055;-88
2021/09/08 08:10:16;;;;;;;;;;;;;;;18.86;75.35;98975.00;1605430;88;24502;-87
2021/09/08 08:12:43;;;;;;;;;;;;;;;18.97;75.13;98983.27;1598469;88;20330;-88
2021/09/08 08:15:09;;;;;;;;;;;;;;;19.07;74.80;98988.03;1579786;89;24748;-88
2021/09/08 08:17:35;;;;;;;;;;;;;;;19.15;74.34;98984.12;1599665;88;22036;-88
2021/09/08 08:20:01;;;;;;;;;;;;;;;19.22;73.93;98984.73;1604136;88;26083;-88
2021/09/08 08:22:27;;;;;;;;;;;;;;;19.33;73.59;98982.36;1573461;90;24447;-88
2021/09/08 08:24:53;;;;;;;;;;;;;;;19.43;73.35;98980.48;1600467;88;20220;-88
2021/09/08 08:27:19;;;;;;;;;;;;;;;19.50;73.08;98984.25;1602436;88;20262;-88
2021/09/08 08:29:45;;;;;;;;;;;;;;;19.56;72.81;98979.66;1601723;88;22051;-88
2021/09/08 08:32:11;;;;;;;;;;;;;;;19.60;72.50;98985.50;1570737;90;26138;-88
2021/09/08 08:34:39;;;;;;;;;;;;;;;19.68;72.22;98988.25;1602834;88;20264;-88
2021/09/08 08:37:06;;;;;;;;;;;;;;;19.73;71.85;98989.13;1605264;87;20325;-88
2021/09/08 08:39:38;;;;;;;;;;;;;;;19.76;71.58;98987.48;1607131;88;24834;-88
2021/09/08 08:42:04;;;;;;;;;;;;;;;19.78;71.32;98984.19;1598431;88;22099;-86
2021/09/08 08:44:30;;;;;;;;;;;;;;;19.80;71.03;98984.36;1602505;89;26115;-85
2021/09/08 08:46:56;;;;;;;;;;;;;;;19.82;70.70;98978.91;1599048;89;24490;-85
2021/09/08 08:49:22;;;;;;;;;;;;;;;19.90;70.36;98980.33;1601179;89;20471;-85
2021/09/08 08:51:49;;;;;;;;;;;;;;;19.96;70.09;98985.03;1600660;89;24813;-86
2021/09/08 08:54:15;;;;;;;;;;;;;;;20.03;69.79;98982.08;1601207;89;22076;-85
2021/09/08 08:56:41;;;;;;;;;;;;;;;20.11;69.30;98980.83;1596674;89;26090;-85
2021/09/08 08:59:08;;;;;;;;;;;;;;;20.20;68.90;98979.05;1601698;89;24521;-85
2021/09/08 09:01:34;;;;;;;;;;;;;;;20.27;68.36;98982.28;1605569;89;20244;-85
2021/09/08 09:04:08;;;;;;;;;;;;;;;20.37;67.93;98979.55;1603998;89;25703;-85
2021/09/08 09:06:38;;;;;;;;;;;;;;;20.44;67.57;98980.12;1599923;89;22168;-85
2021/09/08 09:09:05;;;;;;;;;;;;;;;20.46;67.28;98981.27;1594206;88;26251;-85
2021/09/08 09:11:31;;;;;;;;;;;;;;;20.50;66.74;98975.16;1602611;88;24443;-85
2021/09/08 09:13:58;;;;;;;;;;;;;;;20.58;66.32;98977.86;1573114;89;20306;-86
2021/09/08 09:16:25;;;;;;;;;;;;;;;20.61;66.00;98979.73;1604152;89;24728;-85
2021/09/08 09:18:55;;;;;;;;;;;;;;;20.64;65.63;98971.91;1605600;88;22051;-85
2021/09/08 09:21:22;;;;;;;;;;;;;;;20.69;65.34;98969.61;1596660;88;26113;-86
2021/09/08 09:23:53;;;;;;;;;;;;;;;20.68;64.87;98967.94;1601323;88;24488;-86
2021/09/08 09:26:23;;;;;;;;;;;;;;;20.69;64.57;98970.94;1604151;89;21250;-85
2021/09/08 09:28:49;;;;;;;;;;;;;;;20.76;64.47;98970.16;1606835;89;24827;-85
2021/09/08 09:31:17;;;;;;;;;;;;;;;20.83;64.25;98967.70;1602763;89;21955;-85
2021/09/08 09:33:44;;;;;;;;;;;;;;;20.87;63.84;98966.39;1601066;88;26234;-86
2021/09/08 09:36:15;;;;;;;;;;;;;;;20.96;63.57;98963.25;1604396;89;24422;-85
2021/09/08 09:38:42;;;;;;;;;;;;;;;21.03;63.29;98962.47;1602483;89;20475;-86
2021/09/08 09:41:10;;;;;;;;;;;;;;;21.06;63.01;98958.63;1604724;87;24791;-85
2021/09/08 09:43:38;;;;;;;;;;;;;;;21.10;62.81;98956.84;1604129;88;22025;-85
2021/09/08 09:46:05;;;;;;;;;;;;;;;21.17;62.60;98953.05;1608465;88;25415;-85
2021/09/08 09:48:33;;;;;;;;;;;;;;;21.25;62.39;98954.42;1611599;88;24583;-85
2021/09/08 09:51:08;;;;;;;;;;;;;;;21.31;62.07;98952.45;1603425;88;20487;-86
2021/09/08 09:53:34;;;;;;;;;;;;;;;21.37;61.83;98954.47;1601737;88;24827;-85
2021/09/08 09:56:00;;;;;;;;;;;;;;;21.34;61.41;98945.45;1601515;88;22098;-85
2021/09/08 09:58:27;;;;;;;;;;;;;;;21.34;61.14;98945.45;1605266;88;26024;-85
2021/09/08 10:00:53;;;;;;;;;;;;;;;21.44;61.02;98939.48;1603541;88;24406;-85
2021/09/08 10:03:19;;;;;;;;;;;;;;;21.52;60.75;98946.66;1608061;88;20285;-86
2021/09/08 10:05:46;;;;;;;;;;;;;;;21.59;60.56;98937.03;1609192;88;25525;-86
2021/09/08 10:08:14;;;;;;;;;;;;;;;21.63;60.33;98932.53;1607680;88;22191;-86
2021/09/08 10:10:41;;;;;;;;;;;;;;;21.66;60.08;98934.02;1600573;88;26080;-86
2021/09/08 10:13:13;;;;;;;;;;;;;;;21.68;59.92;98930.70;1606804;88;23991;-85
2021/09/08 10:15:40;;;;;;;;;;;;;;;21.78;59.87;98935.86;1581712;88;20339;-85
2021/09/08 10:18:07;;;;;;;;;;;;;;;21.82;59.74;98931.36;1603563;88;24800;-85
2021/09/08 10:20:33;;;;;;;;;;;;;;;21.93;59.72;98924.89;1588275;88;22257;-86
2021/09/08 10:23:11;;;;;;;;;;;;;;;22.01;59.66;98933.74;1603185;88;26016;-86
2021/09/08 10:25:37;;;;;;;;;;;;;;;22.03;59.56;98930.42;1605691;88;24513;-85
2021/09/08 10:28:06;;;;;;;;;;;;;;;21.97;59.18;98931.09;1600214;88;20343;-86
2021/09/08 10:30:35;;;;;;;;;;;;;;;21.88;58.78;98928.03;1579986;89;25460;-85
2021/09/08 10:33:05;;;;;;;;;;;;;;;21.92;58.62;98929.89;1609919;88;21487;-85
2021/09/08 10:35:38;;;;;;;;;;;;;;;22.00;58.48;98930.73;1597594;88;26076;-85
2021/09/08 10:38:01;;;;;;;;;;;;;;;22.10;58.37;98926.56;1602035;88;24476;-85
2021/09/08 10:40:30;;;;;;;;;;;;;;;22.18;58.26;98921.23;1602875;88;20332;-85
2021/09/08 10:42:56;;;;;;;;;;;;;;;22.25;58.06;98917.40;1596774;88;25515;-85
2021/09/08 10:45:26;;;;;;;;;;;;;;;22.34;57.89;98915.03;1593420;89;22045;-85
2021/09/08 10:47:54;;;;;;;;;;;;;;;22.37;57.67;98916.02;1592079;89;26081;-86
2021/09/08 10:50:41;;;;;;;;;;;;;;;22.43;57.52;98909.51;1594899;89;26161;-85
2021/09/08 10:53:17;;;;;;;;;;;;;;;22.47;57.42;98910.02;1592174;89;20238;-85
2021/09/08 10:55:44;;;;;;;;;;;;;;;22.53;57.27;98905.30;1595012;89;24802;-86
2021/09/08 10:58:10;;;;;;;;;;;;;;;22.54;57.14;98902.47;1592002;89;22073;-86
2021/09/08 11:00:41;;;;;;;;;;;;;;;22.54;56.91;98901.14;1594977;88;26069;-85
2021/09/08 11:03:18;;;;;;;;;;;;;;;22.57;56.74;98901.31;1589655;89;25365;-86
2021/09/08 11:05:59;;;;;;;;;;;;;;;22.65;56.62;98896.44;1595016;89;20365;-86
2021/09/08 11:08:32;;;;;;;;;;;;;;;22.74;56.52;98900.79;1569791;90;24844;-86
2021/09/08 11:11:15;;;;;;;;;;;;;;;22.75;56.39;98893.92;1569710;90;22092;-85
2021/09/08 11:13:42;;;;;;;;;;;;;;;22.73;56.25;98894.61;1562536;90;26029;-85
2021/09/08 11:16:15;;;;;;;;;;;;;;;22.73;56.23;98894.61;1530025;92;24678;-85
2021/09/08 11:18:47;;;;;;;;;;;;;;;22.78;56.15;98896.27;1532458;92;20261;-86
2021/09/08 11:21:15;;;;;;;;;;;;;;;22.86;56.07;98893.54;1548301;92;24793;-85
2021/09/08 11:23:42;;;;;;;;;;;;;;;22.93;56.01;98891.02;1544183;92;22006;-85
2021/09/08 11:26:09;;;;;;;;;;;;;;;22.95;55.97;98894.35;1555828;90;25988;-86
2021/09/08 11:28:36;;;;;;;;;;;;;;;22.95;55.90;98895.69;1556470;90;24419;-86
2021/09/08 11:31:13;;;;;;;;;;;;;;;22.90;55.79;98888.70;1529058;92;20559;-86
2021/09/08 11:33:39;;;;;;;;;;;;;;;22.86;55.72;98893.54;1532060;92;24835;-86
2021/09/08 11:36:12;;;;;;;;;;;;;;;22.86;55.72;98895.37;1551617;92;20282;-86
2021/09/08 11:38:40;;;;;;;;;;;;;;;22.86;55.72;98887.37;1589577;89;26164;-85
2021/09/08 11:41:06;;;;;;;;;;;;;;;22.94;55.68;98892.19;1600042;89;24699;-86
2021/09/08 11:43:34;;;;;;;;;;;;;;;22.98;55.52;98885.14;1591056;89;20257;-86
2021/09/08 11:46:15;;;;;;;;;;;;;;;23.09;55.49;98884.75;1589438;90;25557;-85
2021/09/08 11:48:48;;;;;;;;;;;;;;;23.17;55.32;98888.23;1589146;90;22296;-86
2021/09/08 11:51:18;;;;;;;;;;;;;;;23.24;55.12;98882.98;1589536;90;26231;-88
2021/09/08 11:53:47;;;;;;;;;;;;;;;23.36;55.05;98870.90;1590808;90;25273;-88
2021/09/08 11:56:14;;;;;;;;;;;;;;;23.50;55.02;98873.35;1592344;90;20758;-86
2021/09/08 11:58:41;;;;;;;;;;;;;;;23.53;54.79;98872.48;1584495;90;24781;-86
2021/09/08 12:01:08;;;;;;;;;;;;;;;23.54;54.49;98863.45;1589105;90;22063;-86
2021/09/08 12:03:39;;;;;;;;;;;;;;;23.53;54.24;98871.64;1586565;90;26036;-86
2021/09/08 12:06:23;;;;;;;;;;;;;;;23.41;54.00;98863.17;1586903;90;24468;-86
2021/09/08 12:08:59;;;;;;;;;;;;;;;23.35;53.78;98863.38;1583906;90;20538;-85
2021/09/08 12:11:30;;;;;;;;;;;;;;;23.27;53.73;98865.30;1585815;90;24888;-85
2021/09/08 12:13:56;;;;;;;;;;;;;;;23.24;53.89;98862.95;1587841;90;22246;-86
2021/09/08 12:16:39;;;;;;;;;;;;;;;23.21;53.84;98860.66;1590910;90;25988;-86
2021/09/08 12:19:11;;;;;;;;;;;;;;;23.22;53.63;98856.48;1585627;90;24524;-85
2021/09/08 12:21:44;;;;;;;;;;;;;;;23.35;53.62;98846.52;1591220;90;20267;-88
2021/09/08 12:24:21;;;;;;;;;;;;;;;23.50;53.63;98854.65;1585645;90;24219;-88
2021/09/08 12:26:47;;;;;;;;;;;;;;;23.66;53.43;98854.02;1585356;90;22723;-88
2021/09/08 12:29:14;;;;;;;;;;;;;;;23.75;53.18;98855.59;1587522;90;26011;-88
2021/09/08 12:31:53;;;;;;;;;;;;;;;23.76;52.97;98853.25;1591098;90;24478;-88
2021/09/08 12:34:20;;;;;;;;;;;;;;;23.79;52.89;98845.36;1585930;90;20618;-88
2021/09/08 12:36:47;;;;;;;;;;;;;;;23.82;52.86;98846.35;1590160;90;24932;-88
2021/09/08 12:39:19;;;;;;;;;;;;;;;23.78;52.61;98845.86;1588336;90;22044;-88
2021/09/08 12:41:54;;;;;;;;;;;;;;;23.82;52.36;98845.52;1590336;88;25994;-88
2021/09/08 12:44:34;;;;;;;;;;;;;;;23.83;52.33;98840.51;1603283;88;25485;-88
2021/09/08 12:47:11;;;;;;;;;;;;;;;23.89;52.12;98835.27;1614468;88;20464;-88
2021/09/08 12:49:40;;;;;;;;;;;;;;;23.92;51.93;98834.06;1602318;88;24827;-88
2021/09/08 12:52:08;;;;;;;;;;;;;;;23.90;51.76;98837.41;1602079;88;21845;-88